SGF weather

Springfield Branson National Airport
Springfield, Missouri, United States

Public forecast

Using degrees Fahrenheit for public forecast. Weather courtesy of forecast.io.

Current aviation weather report (METAR) for Springfield Branson National Airport

Retrieved 2020/08/06 21:52 UTC (19 minutes ago):

KSGF 062152Z 17009KT 10SM CLR 29/18 A3002 RMK AO2 SLP152 T02890178

Aviation forecast (TAF) for Springfield Branson National Airport

Retrieved 2020/08/06 18:30 UTC (4 hours ago):

TAF KSGF 061728Z 0618/0718 16006KT P6SM FEW045 BKN250 FM070900 16012KT P6SM OVC100 PROB30 0709/0714 4SM TSRA BR OVC025CB FM071400 16016KT P6SM OVC050 PROB30 0714/0716 4SM TSRA BKN050CB